CheckWX is a tool to help pilots better visualize weather data.  It is not intended as a substitute for an official pre-flight weather briefing.

13:53:35 UTC

NSTU TAF
Pago Pago International Airport
Pago Pago, American Samoa
NSTU 021720Z 0218/0318 VRB05KT P6SM VCSH FEW020 SCT100 BKN200 FM022300 11011KT P6SM VCSH SCT020 BKN040 BKN100

Jul-2@
18:00 UTC

Jul-2 @ 18:00 UTC

Jul-2@
23:00 UTC

Jul-2 @ 23:00 UTC

TAF NSTU 021720Z 0218/0318 VRB05KT P6SM VCSH FEW020 SCT100 BKN200

Expired

Wind
  • Variable at 5 KTS
Conditions
Area Showers
Cloud Levels
  • Few at 2,000' AGL
  • Scattered at 10,000' AGL
  • Broken at 20,000' AGL

Jul-2@
23:00 UTC

Jul-2 @ 23:00 UTC

Jul-3@
18:00 UTC

Jul-3 @ 18:00 UTC

FM022300 11011KT P6SM VCSH SCT020 BKN040 BKN100

From

From Standard forecast or significant change

Wind
  • 110° at 11 KTS
Conditions
Area Showers
Cloud Levels
  • Scattered at 2,000' AGL
  • Broken at 4,000' AGL
  • Broken at 10,000' AGL